sensor_id;sensor_type;location;lat;lon;timestamp;temperature;humidity
70762;DHT22;58360;0.000;0.000;2022-11-18T00:02:14;9.80;89.40
70762;DHT22;58360;0.000;0.000;2022-11-18T00:04:40;9.80;89.50
70762;DHT22;58360;0.000;0.000;2022-11-18T00:07:06;9.90;89.50
70762;DHT22;58360;0.000;0.000;2022-11-18T00:09:31;9.90;89.50
70762;DHT22;58360;0.000;0.000;2022-11-18T00:11:57;9.90;89.30
70762;DHT22;58360;0.000;0.000;2022-11-18T00:14:41;10.00;89.10
70762;DHT22;58360;0.000;0.000;2022-11-18T00:17:07;10.00;88.70
70762;DHT22;58360;0.000;0.000;2022-11-18T00:19:36;10.00;88.70
70762;DHT22;58360;0.000;0.000;2022-11-18T00:22:03;10.00;88.50
70762;DHT22;58360;0.000;0.000;2022-11-18T00:24:31;10.10;88.40
70762;DHT22;58360;0.000;0.000;2022-11-18T00:26:57;10.10;88.00
70762;DHT22;58360;0.000;0.000;2022-11-18T00:29:24;10.20;87.80
70762;DHT22;58360;0.000;0.000;2022-11-18T00:31:53;10.20;87.80
70762;DHT22;58360;0.000;0.000;2022-11-18T00:34:19;10.30;87.90
70762;DHT22;58360;0.000;0.000;2022-11-18T00:36:46;10.40;86.80
70762;DHT22;58360;0.000;0.000;2022-11-18T00:39:14;10.50;86.90
70762;DHT22;58360;0.000;0.000;2022-11-18T00:41:40;10.40;87.00
70762;DHT22;58360;0.000;0.000;2022-11-18T00:44:24;10.40;86.70
70762;DHT22;58360;0.000;0.000;2022-11-18T00:46:50;10.50;86.70
70762;DHT22;58360;0.000;0.000;2022-11-18T00:49:16;10.50;86.50
70762;DHT22;58360;0.000;0.000;2022-11-18T00:51:41;10.70;85.40
70762;DHT22;58360;0.000;0.000;2022-11-18T00:54:07;10.70;85.40
70762;DHT22;58360;0.000;0.000;2022-11-18T00:56:33;10.60;85.80
70762;DHT22;58360;0.000;0.000;2022-11-18T00:58:59;10.70;85.90
70762;DHT22;58360;0.000;0.000;2022-11-18T01:01:25;10.70;85.60
70762;DHT22;58360;0.000;0.000;2022-11-18T01:03:51;10.70;85.50
70762;DHT22;58360;0.000;0.000;2022-11-18T01:06:17;10.70;85.30
70762;DHT22;58360;0.000;0.000;2022-11-18T01:08:42;10.70;85.30
70762;DHT22;58360;0.000;0.000;2022-11-18T01:11:08;10.70;85.30
70762;DHT22;58360;0.000;0.000;2022-11-18T01:13:53;10.70;85.20
70762;DHT22;58360;0.000;0.000;2022-11-18T01:16:24;10.70;85.50
70762;DHT22;58360;0.000;0.000;2022-11-18T01:18:56;10.80;84.60
70762;DHT22;58360;0.000;0.000;2022-11-18T01:21:23;11.00;83.50
70762;DHT22;58360;0.000;0.000;2022-11-18T01:23:48;10.90;84.30
70762;DHT22;58360;0.000;0.000;2022-11-18T01:26:15;10.80;84.60
70762;DHT22;58360;0.000;0.000;2022-11-18T01:28:41;10.90;84.00
70762;DHT22;58360;0.000;0.000;2022-11-18T01:31:13;10.90;84.30
70762;DHT22;58360;0.000;0.000;2022-11-18T01:33:39;10.90;84.00
70762;DHT22;58360;0.000;0.000;2022-11-18T01:36:20;10.90;84.20
70762;DHT22;58360;0.000;0.000;2022-11-18T01:38:46;10.90;84.40
70762;DHT22;58360;0.000;0.000;2022-11-18T01:41:13;10.80;84.60
70762;DHT22;58360;0.000;0.000;2022-11-18T01:44:03;10.90;84.20
70762;DHT22;58360;0.000;0.000;2022-11-18T01:46:31;11.00;83.10
70762;DHT22;58360;0.000;0.000;2022-11-18T01:51:27;11.00;83.30
70762;DHT22;58360;0.000;0.000;2022-11-18T01:54:01;10.80;84.10
70762;DHT22;58360;0.000;0.000;2022-11-18T01:56:44;10.90;83.40
70762;DHT22;58360;0.000;0.000;2022-11-18T02:00:04;10.80;84.10
70762;DHT22;58360;0.000;0.000;2022-11-18T02:02:33;10.80;83.70
70762;DHT22;58360;0.000;0.000;2022-11-18T02:05:00;10.70;84.00
70762;DHT22;58360;0.000;0.000;2022-11-18T02:07:27;10.70;83.90
70762;DHT22;58360;0.000;0.000;2022-11-18T02:09:55;10.60;84.10
70762;DHT22;58360;0.000;0.000;2022-11-18T02:12:22;10.60;84.40
70762;DHT22;58360;0.000;0.000;2022-11-18T02:24:32;10.30;85.30
70762;DHT22;58360;0.000;0.000;2022-11-18T02:32:15;10.20;85.80
70762;DHT22;58360;0.000;0.000;2022-11-18T02:35:00;10.00;86.20
70762;DHT22;58360;0.000;0.000;2022-11-18T02:38:15;9.90;86.60
70762;DHT22;58360;0.000;0.000;2022-11-18T02:40:28;9.90;86.50
70762;DHT22;58360;0.000;0.000;2022-11-18T02:43:03;9.90;86.60
70762;DHT22;58360;0.000;0.000;2022-11-18T02:45:34;9.90;86.60
70762;DHT22;58360;0.000;0.000;2022-11-18T02:48:05;9.80;86.80
70762;DHT22;58360;0.000;0.000;2022-11-18T02:50:33;9.80;87.10
70762;DHT22;58360;0.000;0.000;2022-11-18T02:53:03;9.70;87.40
70762;DHT22;58360;0.000;0.000;2022-11-18T02:55:32;9.70;87.80
70762;DHT22;58360;0.000;0.000;2022-11-18T02:58:01;9.60;88.00
70762;DHT22;58360;0.000;0.000;2022-11-18T03:00:27;9.60;88.10
70762;DHT22;58360;0.000;0.000;2022-11-18T03:02:52;9.50;88.00
70762;DHT22;58360;0.000;0.000;2022-11-18T03:05:42;9.50;88.10
70762;DHT22;58360;0.000;0.000;2022-11-18T03:08:14;9.50;87.90
70762;DHT22;58360;0.000;0.000;2022-11-18T03:10:48;9.50;88.20
70762;DHT22;58360;0.000;0.000;2022-11-18T03:13:23;9.40;88.30
70762;DHT22;58360;0.000;0.000;2022-11-18T03:16:05;9.40;88.50
70762;DHT22;58360;0.000;0.000;2022-11-18T03:21:24;9.40;88.50
70762;DHT22;58360;0.000;0.000;2022-11-18T03:24:02;9.30;88.70
70762;DHT22;58360;0.000;0.000;2022-11-18T03:30:38;9.30;88.70
70762;DHT22;58360;0.000;0.000;2022-11-18T03:33:18;9.20;89.00
70762;DHT22;58360;0.000;0.000;2022-11-18T03:35:49;9.30;88.70
70762;DHT22;58360;0.000;0.000;2022-11-18T03:38:20;9.30;89.30
70762;DHT22;58360;0.000;0.000;2022-11-18T03:40:53;9.20;89.10
70762;DHT22;58360;0.000;0.000;2022-11-18T03:43:22;9.20;89.20
70762;DHT22;58360;0.000;0.000;2022-11-18T03:46:01;9.10;89.50
70762;DHT22;58360;0.000;0.000;2022-11-18T03:48:33;9.10;89.30
70762;DHT22;58360;0.000;0.000;2022-11-18T03:51:09;9.10;89.40
70762;DHT22;58360;0.000;0.000;2022-11-18T03:53:41;9.00;89.80
70762;DHT22;58360;0.000;0.000;2022-11-18T03:56:48;9.00;90.00
70762;DHT22;58360;0.000;0.000;2022-11-18T04:00:21;9.00;90.10
70762;DHT22;58360;0.000;0.000;2022-11-18T04:02:47;9.00;90.20
70762;DHT22;58360;0.000;0.000;2022-11-18T04:05:16;9.00;90.10
70762;DHT22;58360;0.000;0.000;2022-11-18T04:07:59;8.90;90.30
70762;DHT22;58360;0.000;0.000;2022-11-18T04:13:23;8.90;90.40
70762;DHT22;58360;0.000;0.000;2022-11-18T04:15:50;8.90;90.30
70762;DHT22;58360;0.000;0.000;2022-11-18T04:18:18;9.00;90.30
70762;DHT22;58360;0.000;0.000;2022-11-18T04:20:43;8.90;90.10
70762;DHT22;58360;0.000;0.000;2022-11-18T04:23:09;8.90;90.10
70762;DHT22;58360;0.000;0.000;2022-11-18T04:25:35;8.90;90.10
70762;DHT22;58360;0.000;0.000;2022-11-18T04:28:01;9.00;90.20
70762;DHT22;58360;0.000;0.000;2022-11-18T04:30:27;8.80;90.30
70762;DHT22;58360;0.000;0.000;2022-11-18T04:32:53;8.90;90.30
70762;DHT22;58360;0.000;0.000;2022-11-18T04:35:18;8.90;90.30
70762;DHT22;58360;0.000;0.000;2022-11-18T04:37:44;8.90;90.30
70762;DHT22;58360;0.000;0.000;2022-11-18T04:40:10;8.90;90.30
70762;DHT22;58360;0.000;0.000;2022-11-18T04:42:36;8.90;90.20
70762;DHT22;58360;0.000;0.000;2022-11-18T04:45:02;8.90;90.30
70762;DHT22;58360;0.000;0.000;2022-11-18T04:47:28;8.90;90.20
70762;DHT22;58360;0.000;0.000;2022-11-18T04:49:54;8.90;90.10
70762;DHT22;58360;0.000;0.000;2022-11-18T04:52:19;8.90;90.00
70762;DHT22;58360;0.000;0.000;2022-11-18T04:54:45;8.90;90.10
70762;DHT22;58360;0.000;0.000;2022-11-18T04:57:11;8.80;90.50
70762;DHT22;58360;0.000;0.000;2022-11-18T04:59:37;8.80;90.40
70762;DHT22;58360;0.000;0.000;2022-11-18T05:02:03;8.80;90.20
70762;DHT22;58360;0.000;0.000;2022-11-18T05:04:32;8.90;90.10
70762;DHT22;58360;0.000;0.000;2022-11-18T05:07:00;8.90;90.10
70762;DHT22;58360;0.000;0.000;2022-11-18T05:09:26;8.80;90.20
70762;DHT22;58360;0.000;0.000;2022-11-18T05:11:53;8.80;90.30
70762;DHT22;58360;0.000;0.000;2022-11-18T05:14:37;8.80;90.20
70762;DHT22;58360;0.000;0.000;2022-11-18T05:17:05;8.80;90.20
70762;DHT22;58360;0.000;0.000;2022-11-18T05:19:31;8.90;90.20
70762;DHT22;58360;0.000;0.000;2022-11-18T05:22:16;8.90;90.10
70762;DHT22;58360;0.000;0.000;2022-11-18T05:24:42;8.90;90.10
70762;DHT22;58360;0.000;0.000;2022-11-18T05:27:07;8.80;90.30
70762;DHT22;58360;0.000;0.000;2022-11-18T05:29:33;8.80;90.20
70762;DHT22;58360;0.000;0.000;2022-11-18T05:31:59;8.70;90.50
70762;DHT22;58360;0.000;0.000;2022-11-18T05:34:24;8.70;90.40
70762;DHT22;58360;0.000;0.000;2022-11-18T05:36:50;8.60;90.50
70762;DHT22;58360;0.000;0.000;2022-11-18T05:39:17;8.60;90.60
70762;DHT22;58360;0.000;0.000;2022-11-18T05:41:42;8.60;90.70
70762;DHT22;58360;0.000;0.000;2022-11-18T05:44:26;8.60;90.70
70762;DHT22;58360;0.000;0.000;2022-11-18T05:46:52;8.70;90.50
70762;DHT22;58360;0.000;0.000;2022-11-18T05:52:22;8.80;90.10
70762;DHT22;58360;0.000;0.000;2022-11-18T05:54:49;8.70;90.20
70762;DHT22;58360;0.000;0.000;2022-11-18T05:57:15;8.60;90.20
70762;DHT22;58360;0.000;0.000;2022-11-18T05:59:40;8.70;90.00
70762;DHT22;58360;0.000;0.000;2022-11-18T06:02:15;8.70;90.00
70762;DHT22;58360;0.000;0.000;2022-11-18T06:04:58;8.60;90.20
70762;DHT22;58360;0.000;0.000;2022-11-18T06:07:32;8.60;90.10
70762;DHT22;58360;0.000;0.000;2022-11-18T06:09:59;8.70;90.00
70762;DHT22;58360;0.000;0.000;2022-11-18T06:12:30;8.60;90.10
70762;DHT22;58360;0.000;0.000;2022-11-18T06:17:34;8.50;90.30
70762;DHT22;58360;0.000;0.000;2022-11-18T06:20:02;8.50;90.40
70762;DHT22;58360;0.000;0.000;2022-11-18T06:22:27;8.50;90.30
70762;DHT22;58360;0.000;0.000;2022-11-18T06:24:53;8.40;90.50
70762;DHT22;58360;0.000;0.000;2022-11-18T06:27:19;8.40;90.60
70762;DHT22;58360;0.000;0.000;2022-11-18T06:29:45;8.40;90.50
70762;DHT22;58360;0.000;0.000;2022-11-18T06:32:11;8.30;90.60
70762;DHT22;58360;0.000;0.000;2022-11-18T06:34:36;8.40;90.50
70762;DHT22;58360;0.000;0.000;2022-11-18T06:37:13;8.30;90.50
70762;DHT22;58360;0.000;0.000;2022-11-18T06:39:39;8.30;90.50
70762;DHT22;58360;0.000;0.000;2022-11-18T06:42:05;8.30;90.50
70762;DHT22;58360;0.000;0.000;2022-11-18T06:44:31;8.30;90.40
70762;DHT22;58360;0.000;0.000;2022-11-18T06:46:56;8.40;90.30
70762;DHT22;58360;0.000;0.000;2022-11-18T06:49:24;8.30;90.40
70762;DHT22;58360;0.000;0.000;2022-11-18T06:51:50;8.20;90.50
70762;DHT22;58360;0.000;0.000;2022-11-18T06:54:16;8.20;90.50
70762;DHT22;58360;0.000;0.000;2022-11-18T06:56:41;8.20;90.60
70762;DHT22;58360;0.000;0.000;2022-11-18T06:59:07;8.10;90.70
70762;DHT22;58360;0.000;0.000;2022-11-18T07:01:38;8.10;90.80
70762;DHT22;58360;0.000;0.000;2022-11-18T07:04:04;8.00;90.70
70762;DHT22;58360;0.000;0.000;2022-11-18T07:06:31;8.00;90.80
70762;DHT22;58360;0.000;0.000;2022-11-18T07:08:59;8.00;90.70
70762;DHT22;58360;0.000;0.000;2022-11-18T07:11:26;8.00;90.70
70762;DHT22;58360;0.000;0.000;2022-11-18T07:13:52;8.10;90.70
70762;DHT22;58360;0.000;0.000;2022-11-18T07:16:22;8.10;90.60
70762;DHT22;58360;0.000;0.000;2022-11-18T07:18:50;8.30;90.40
70762;DHT22;58360;0.000;0.000;2022-11-18T07:21:21;8.30;90.20
70762;DHT22;58360;0.000;0.000;2022-11-18T07:23:48;8.30;90.40
70762;DHT22;58360;0.000;0.000;2022-11-18T07:26:14;8.20;90.60
70762;DHT22;58360;0.000;0.000;2022-11-18T07:28:40;8.20;90.80
70762;DHT22;58360;0.000;0.000;2022-11-18T07:31:10;8.20;90.60
70762;DHT22;58360;0.000;0.000;2022-11-18T07:33:37;8.20;90.70
70762;DHT22;58360;0.000;0.000;2022-11-18T07:36:05;8.20;90.60
70762;DHT22;58360;0.000;0.000;2022-11-18T07:38:31;8.30;90.50
70762;DHT22;58360;0.000;0.000;2022-11-18T07:41:11;8.20;90.60
70762;DHT22;58360;0.000;0.000;2022-11-18T07:43:38;8.30;90.70
70762;DHT22;58360;0.000;0.000;2022-11-18T07:46:18;8.30;90.40
70762;DHT22;58360;0.000;0.000;2022-11-18T07:48:45;8.30;90.50
70762;DHT22;58360;0.000;0.000;2022-11-18T07:51:12;8.40;90.20
70762;DHT22;58360;0.000;0.000;2022-11-18T07:53:40;8.40;90.60
70762;DHT22;58360;0.000;0.000;2022-11-18T07:56:06;8.40;90.50
70762;DHT22;58360;0.000;0.000;2022-11-18T07:58:32;8.40;90.40
70762;DHT22;58360;0.000;0.000;2022-11-18T08:00:58;8.40;90.50
70762;DHT22;58360;0.000;0.000;2022-11-18T08:03:30;8.40;90.50
70762;DHT22;58360;0.000;0.000;2022-11-18T08:06:00;8.40;90.40
70762;DHT22;58360;0.000;0.000;2022-11-18T08:08:26;8.40;90.50
70762;DHT22;58360;0.000;0.000;2022-11-18T08:10:55;8.40;90.70
70762;DHT22;58360;0.000;0.000;2022-11-18T08:13:21;8.40;90.60
70762;DHT22;58360;0.000;0.000;2022-11-18T08:15:47;8.50;90.60
70762;DHT22;58360;0.000;0.000;2022-11-18T08:18:13;8.60;90.50
70762;DHT22;58360;0.000;0.000;2022-11-18T08:20:38;8.70;90.50
70762;DHT22;58360;0.000;0.000;2022-11-18T08:23:04;8.70;90.30
70762;DHT22;58360;0.000;0.000;2022-11-18T08:25:30;8.80;90.10
70762;DHT22;58360;0.000;0.000;2022-11-18T08:27:55;8.90;90.10
70762;DHT22;58360;0.000;0.000;2022-11-18T08:30:21;8.90;90.00
70762;DHT22;58360;0.000;0.000;2022-11-18T08:32:47;9.00;89.80
70762;DHT22;58360;0.000;0.000;2022-11-18T08:35:12;9.10;89.40
70762;DHT22;58360;0.000;0.000;2022-11-18T08:37:38;9.10;89.20
70762;DHT22;58360;0.000;0.000;2022-11-18T08:40:04;9.20;88.90
70762;DHT22;58360;0.000;0.000;2022-11-18T08:42:31;9.30;89.50
70762;DHT22;58360;0.000;0.000;2022-11-18T08:44:57;9.30;89.40
70762;DHT22;58360;0.000;0.000;2022-11-18T08:47:23;9.40;89.00
70762;DHT22;58360;0.000;0.000;2022-11-18T08:49:48;9.50;88.90
70762;DHT22;58360;0.000;0.000;2022-11-18T08:52:14;9.60;88.30
70762;DHT22;58360;0.000;0.000;2022-11-18T08:54:40;9.60;88.50
70762;DHT22;58360;0.000;0.000;2022-11-18T08:57:05;9.70;87.80
70762;DHT22;58360;0.000;0.000;2022-11-18T08:59:31;9.80;87.90
70762;DHT22;58360;0.000;0.000;2022-11-18T09:01:57;9.90;87.40
70762;DHT22;58360;0.000;0.000;2022-11-18T09:04:22;9.90;87.80
70762;DHT22;58360;0.000;0.000;2022-11-18T09:06:48;10.10;87.00
70762;DHT22;58360;0.000;0.000;2022-11-18T09:09:14;10.00;87.20
70762;DHT22;58360;0.000;0.000;2022-11-18T09:11:40;10.10;87.20
70762;DHT22;58360;0.000;0.000;2022-11-18T09:14:06;10.20;86.80
70762;DHT22;58360;0.000;0.000;2022-11-18T09:16:33;10.40;86.50
70762;DHT22;58360;0.000;0.000;2022-11-18T09:19:00;10.40;86.00
70762;DHT22;58360;0.000;0.000;2022-11-18T09:21:26;10.60;85.60
70762;DHT22;58360;0.000;0.000;2022-11-18T09:23:52;10.80;85.50
70762;DHT22;58360;0.000;0.000;2022-11-18T09:26:20;10.90;84.70
70762;DHT22;58360;0.000;0.000;2022-11-18T09:28:47;11.10;83.80
70762;DHT22;58360;0.000;0.000;2022-11-18T09:31:15;11.10;83.70
70762;DHT22;58360;0.000;0.000;2022-11-18T09:33:41;11.20;83.20
70762;DHT22;58360;0.000;0.000;2022-11-18T09:36:16;11.20;82.60
70762;DHT22;58360;0.000;0.000;2022-11-18T09:38:42;11.30;82.20
70762;DHT22;58360;0.000;0.000;2022-11-18T09:41:43;11.30;82.20
70762;DHT22;58360;0.000;0.000;2022-11-18T09:51:50;11.60;81.00
70762;DHT22;58360;0.000;0.000;2022-11-18T09:54:24;11.70;80.30
70762;DHT22;58360;0.000;0.000;2022-11-18T09:56:52;11.80;79.90
70762;DHT22;58360;0.000;0.000;2022-11-18T09:59:20;11.80;79.70
70762;DHT22;58360;0.000;0.000;2022-11-18T10:01:51;11.80;80.10
70762;DHT22;58360;0.000;0.000;2022-11-18T10:04:19;11.80;80.00
70762;DHT22;58360;0.000;0.000;2022-11-18T10:06:46;11.70;80.60
70762;DHT22;58360;0.000;0.000;2022-11-18T10:09:36;11.70;80.40
70762;DHT22;58360;0.000;0.000;2022-11-18T10:15:25;11.70;80.20
70762;DHT22;58360;0.000;0.000;2022-11-18T10:24:01;12.00;79.50
70762;DHT22;58360;0.000;0.000;2022-11-18T10:26:33;11.80;80.50
70762;DHT22;58360;0.000;0.000;2022-11-18T10:29:00;11.90;80.20
70762;DHT22;58360;0.000;0.000;2022-11-18T10:31:25;12.00;79.30
70762;DHT22;58360;0.000;0.000;2022-11-18T10:33:58;12.00;80.10
70762;DHT22;58360;0.000;0.000;2022-11-18T10:36:29;12.00;80.20
70762;DHT22;58360;0.000;0.000;2022-11-18T10:39:08;12.00;79.00
70762;DHT22;58360;0.000;0.000;2022-11-18T10:41:42;12.00;79.00
70762;DHT22;58360;0.000;0.000;2022-11-18T10:46:53;11.90;79.70
70762;DHT22;58360;0.000;0.000;2022-11-18T10:49:19;11.80;79.40
70762;DHT22;58360;0.000;0.000;2022-11-18T10:52:07;11.90;78.90
70762;DHT22;58360;0.000;0.000;2022-11-18T10:54:33;11.70;80.70
70762;DHT22;58360;0.000;0.000;2022-11-18T10:59:29;11.60;80.30
70762;DHT22;58360;0.000;0.000;2022-11-18T11:04:40;11.60;81.80
70762;DHT22;58360;0.000;0.000;2022-11-18T11:07:32;11.50;82.00
70762;DHT22;58360;0.000;0.000;2022-11-18T11:12:38;11.60;81.00
70762;DHT22;58360;0.000;0.000;2022-11-18T11:15:27;11.60;80.90
70762;DHT22;58360;0.000;0.000;2022-11-18T11:23:32;11.50;82.10
70762;DHT22;58360;0.000;0.000;2022-11-18T11:31:40;11.50;83.40
70762;DHT22;58360;0.000;0.000;2022-11-18T11:34:42;11.50;83.40
70762;DHT22;58360;0.000;0.000;2022-11-18T11:40:51;11.60;83.50
70762;DHT22;58360;0.000;0.000;2022-11-18T11:43:33;11.70;82.40
70762;DHT22;58360;0.000;0.000;2022-11-18T11:49:02;11.60;82.50
70762;DHT22;58360;0.000;0.000;2022-11-18T11:51:51;11.60;82.10
70762;DHT22;58360;0.000;0.000;2022-11-18T11:55:29;11.60;81.70
70762;DHT22;58360;0.000;0.000;2022-11-18T12:07:56;11.60;82.90
70762;DHT22;58360;0.000;0.000;2022-11-18T12:30:17;11.40;85.20
70762;DHT22;58360;0.000;0.000;2022-11-18T12:46:46;11.40;88.70
70762;DHT22;58360;0.000;0.000;2022-11-18T12:58:53;11.70;87.30
70762;DHT22;58360;0.000;0.000;2022-11-18T14:51:28;11.20;90.60
70762;DHT22;58360;0.000;0.000;2022-11-18T14:53:54;11.20;90.80
70762;DHT22;58360;0.000;0.000;2022-11-18T14:56:27;11.10;91.10
70762;DHT22;58360;0.000;0.000;2022-11-18T14:58:53;11.20;91.00
70762;DHT22;58360;0.000;0.000;2022-11-18T15:01:19;11.40;91.10
70762;DHT22;58360;0.000;0.000;2022-11-18T15:03:52;11.20;91.10
70762;DHT22;58360;0.000;0.000;2022-11-18T15:06:38;11.20;91.00
70762;DHT22;58360;0.000;0.000;2022-11-18T15:09:05;11.20;90.90
